Linlithgo, New York
Current Conditions -  °F | °C
As of 1:53 PM on Friday 24 Oct 2014 (Local Time) from KPOU Reporting Station
Overcast Overcast  
Wind Chill: 57°   Ceiling: 3400
Heat Index: 57°   Visibility: 10mi
Dew Point: 43°   Wind: 7mph
Humidity: 59%   Direction: 10°N
Pressure: 29.77"   Gusts: NA
Location:  42.118°N, 73.8553°W
Report Text: KPOU 241753Z 01006KT 10SM OVC034 14/06 A2977 RMK AO2 SLP079 60000 T01390061 10150 20094 58015
Loading
Personal Weather Stations






























Interactive Weather Map
Tropical Storm Tracking
New forecast layout! Learn more

10-Day Weather Forecast

Advertisements
Track Severe Weather on mobile